createdAt,value
2023-05-20T00:00:08.240Z,11.45
2023-05-20T00:02:36.120Z,10.80
2023-05-20T00:05:08.310Z,10.30
2023-05-20T00:07:35.693Z,12.73
2023-05-20T00:10:02.506Z,13.63
2023-05-20T00:12:29.384Z,11.50
2023-05-20T00:14:56.429Z,13.45
2023-05-20T00:17:23.406Z,11.35
2023-05-20T00:19:50.229Z,10.45
2023-05-20T00:22:17.201Z,11.88
2023-05-20T00:24:47.286Z,10.88
2023-05-20T00:27:18.606Z,10.90
2023-05-20T00:29:46.233Z,10.23
2023-05-20T00:32:16.481Z,9.60
2023-05-20T00:34:44.372Z,10.65
2023-05-20T00:37:11.375Z,7.53
2023-05-20T00:39:41.490Z,12.35
2023-05-20T00:42:08.527Z,14.43
2023-05-20T00:44:35.495Z,8.80
2023-05-20T00:47:02.475Z,15.45
2023-05-20T00:49:32.801Z,12.18
2023-05-20T00:52:00.047Z,12.57
2023-05-20T00:54:27.168Z,14.52
2023-05-20T00:56:54.547Z,10.23
2023-05-20T00:59:21.566Z,14.82
2023-05-20T01:01:49.268Z,9.63
2023-05-20T01:04:19.710Z,11.00
2023-05-20T01:06:50.043Z,11.18
2023-05-20T01:09:16.912Z,10.73
2023-05-20T01:11:51.221Z,11.70
2023-05-20T01:14:19.135Z,27.67
2023-05-20T01:16:48.236Z,8.82
2023-05-20T01:19:42.276Z,10.07
2023-05-20T01:22:13.016Z,11.45
2023-05-20T01:24:45.283Z,12.10
2023-05-20T01:27:13.629Z,12.55
2023-05-20T01:29:41.797Z,12.55
2023-05-20T01:32:15.473Z,11.77
2023-05-20T01:34:43.218Z,12.77
2023-05-20T01:37:11.110Z,10.25
2023-05-20T01:39:41.816Z,13.10
2023-05-20T01:42:10.474Z,9.50
2023-05-20T01:44:37.823Z,10.10
2023-05-20T01:47:04.922Z,10.82
2023-05-20T01:49:32.033Z,12.25
2023-05-20T01:51:59.449Z,13.32
2023-05-20T01:54:26.531Z,11.55
2023-05-20T01:56:53.729Z,12.35
2023-05-20T01:59:20.744Z,14.73
2023-05-20T02:01:47.855Z,11.75
2023-05-20T02:04:14.860Z,13.90
2023-05-20T02:06:41.809Z,15.20
2023-05-20T02:09:08.668Z,13.05
2023-05-20T02:11:36.357Z,11.82
2023-05-20T02:14:03.324Z,11.93
2023-05-20T02:16:30.511Z,9.95
2023-05-20T02:18:58.700Z,10.18
2023-05-20T02:21:26.549Z,12.65
2023-05-20T02:23:53.480Z,10.63
2023-05-20T02:26:20.849Z,11.18
2023-05-20T02:28:50.890Z,11.70
2023-05-20T02:31:18.234Z,9.90
2023-05-20T02:33:46.021Z,12.10
2023-05-20T02:36:13.072Z,10.13
2023-05-20T02:38:40.083Z,11.18
2023-05-20T02:41:07.006Z,8.73
2023-05-20T02:43:34.536Z,10.27
2023-05-20T02:46:01.510Z,11.05
2023-05-20T02:48:28.496Z,9.50
2023-05-20T02:50:55.911Z,8.77
2023-05-20T02:53:22.972Z,10.05
2023-05-20T02:55:50.484Z,8.77
2023-05-20T02:58:17.645Z,10.38
2023-05-20T03:00:44.691Z,10.75
2023-05-20T03:03:11.882Z,10.95
2023-05-20T03:05:38.809Z,13.93
2023-05-20T03:08:10.476Z,13.35
2023-05-20T03:10:38.924Z,12.30
2023-05-20T03:13:11.694Z,11.90
2023-05-20T03:15:42.976Z,12.02
2023-05-20T03:18:09.923Z,11.82
2023-05-20T03:20:38.442Z,10.15
2023-05-20T03:23:06.006Z,16.15
2023-05-20T03:25:33.180Z,11.57
2023-05-20T03:28:00.307Z,11.93
2023-05-20T03:30:28.070Z,13.70
2023-05-20T03:32:57.903Z,10.70
2023-05-20T03:35:25.892Z,10.98
2023-05-20T03:37:53.476Z,13.18
2023-05-20T03:40:21.405Z,14.50
2023-05-20T03:42:48.411Z,10.82
2023-05-20T03:45:15.661Z,10.73
2023-05-20T03:47:42.539Z,9.98
2023-05-20T03:50:09.959Z,13.32
2023-05-20T03:52:37.274Z,12.30
2023-05-20T03:55:04.579Z,9.27
2023-05-20T03:57:32.412Z,12.93
2023-05-20T03:59:59.370Z,13.52
2023-05-20T04:02:26.331Z,11.88
2023-05-20T04:04:53.266Z,12.30
2023-05-20T04:07:20.130Z,13.20
2023-05-20T04:09:46.973Z,12.82
2023-05-20T04:12:14.069Z,11.15
2023-05-20T04:14:42.520Z,14.10
2023-05-20T04:17:09.753Z,16.80
2023-05-20T04:19:38.324Z,10.65
2023-05-20T04:22:05.513Z,10.10
2023-05-20T04:24:32.425Z,10.20
2023-05-20T04:26:59.409Z,13.40
2023-05-20T04:29:26.294Z,12.23
2023-05-20T04:31:53.764Z,11.05
2023-05-20T04:34:26.974Z,15.52
2023-05-20T04:36:53.954Z,13.27
2023-05-20T04:39:20.944Z,9.98
2023-05-20T04:41:48.547Z,13.48
2023-05-20T04:44:15.339Z,11.90
2023-05-20T04:46:42.309Z,9.95
2023-05-20T04:49:09.471Z,12.20
2023-05-20T04:51:36.383Z,13.40
2023-05-20T04:54:03.263Z,11.23
2023-05-20T04:56:30.085Z,14.10
2023-05-20T04:58:58.879Z,14.60
2023-05-20T05:01:25.786Z,12.38
2023-05-20T05:03:52.886Z,11.07
2023-05-20T05:06:19.817Z,11.73
2023-05-20T05:08:46.818Z,13.02
2023-05-20T05:11:13.720Z,7.57
2023-05-20T05:13:40.734Z,12.15
2023-05-20T05:16:07.816Z,9.15
2023-05-20T05:18:35.421Z,9.57
2023-05-20T05:21:06.658Z,11.23
2023-05-20T05:23:34.118Z,11.60
2023-05-20T05:26:01.151Z,12.07
2023-05-20T05:28:28.207Z,12.40
2023-05-20T05:30:56.661Z,10.20
2023-05-20T05:33:23.637Z,12.02
2023-05-20T05:35:50.930Z,12.43
2023-05-20T05:38:18.143Z,10.93
2023-05-20T05:40:45.039Z,10.65
2023-05-20T05:43:11.961Z,10.68
2023-05-20T05:45:39.391Z,11.50
2023-05-20T05:48:06.600Z,12.02
2023-05-20T05:50:33.934Z,9.10
2023-05-20T05:53:01.158Z,11.38
2023-05-20T05:55:28.141Z,11.45
2023-05-20T05:57:55.118Z,11.60
2023-05-20T06:00:22.731Z,12.10
2023-05-20T06:02:50.202Z,13.13
2023-05-20T06:05:17.805Z,11.30
2023-05-20T06:07:44.793Z,10.38
2023-05-20T06:10:12.068Z,7.88
2023-05-20T06:12:39.052Z,9.60
2023-05-20T06:15:07.987Z,9.13
2023-05-20T06:17:34.836Z,11.68
2023-05-20T06:20:01.901Z,11.13
2023-05-20T06:22:32.214Z,10.05
2023-05-20T06:25:05.004Z,13.98
2023-05-20T06:27:32.170Z,9.68
2023-05-20T06:29:59.357Z,13.43
2023-05-20T06:32:27.910Z,10.15
2023-05-20T06:34:54.960Z,9.15
2023-05-20T06:37:24.652Z,10.43
2023-05-20T06:39:54.243Z,9.40
2023-05-20T06:42:21.992Z,9.85
2023-05-20T06:44:49.383Z,8.63
2023-05-20T06:47:21.637Z,8.40
2023-05-20T06:49:55.518Z,8.48
2023-05-20T06:52:27.707Z,8.98
2023-05-20T06:55:05.201Z,9.05
2023-05-20T06:57:37.156Z,10.88
2023-05-20T07:00:06.364Z,7.88
2023-05-20T07:02:36.670Z,7.82
2023-05-20T07:05:08.704Z,7.97
2023-05-20T07:07:40.496Z,8.00
2023-05-20T07:10:12.534Z,8.63
2023-05-20T07:12:44.075Z,8.60
2023-05-20T07:15:11.584Z,8.23
2023-05-20T07:17:50.800Z,5.50
2023-05-20T07:20:25.394Z,7.05
2023-05-20T07:23:01.489Z,6.60
2023-05-20T07:25:32.106Z,5.20
2023-05-20T07:28:06.793Z,5.30
2023-05-20T07:30:37.296Z,7.07
2023-05-20T07:33:04.938Z,5.20
2023-05-20T07:35:39.196Z,6.35
2023-05-20T07:38:06.337Z,7.57
2023-05-20T07:40:37.223Z,5.90
2023-05-20T07:43:09.420Z,6.25
2023-05-20T07:45:40.156Z,6.93
2023-05-20T07:48:11.198Z,7.50
2023-05-20T07:50:39.544Z,5.38
2023-05-20T07:53:07.494Z,9.80
2023-05-20T07:55:39.365Z,8.07
2023-05-20T07:58:06.654Z,5.47
2023-05-20T08:00:37.548Z,5.00
2023-05-20T08:03:05.004Z,3.45
2023-05-20T08:05:32.373Z,6.97
2023-05-20T08:07:59.719Z,3.70
2023-05-20T08:10:26.810Z,4.75
2023-05-20T08:12:58.230Z,6.15
2023-05-20T08:18:04.524Z,5.00
2023-05-20T08:20:36.888Z,4.28
2023-05-20T08:23:07.289Z,4.00
2023-05-20T08:25:38.746Z,7.28
2023-05-20T08:28:13.168Z,5.32
2023-05-20T08:30:44.838Z,4.85
2023-05-20T08:33:19.521Z,4.88
2023-05-20T08:35:48.104Z,5.18
2023-05-20T08:38:20.858Z,3.60
2023-05-20T08:40:53.953Z,6.30
2023-05-20T08:43:25.036Z,4.95
2023-05-20T08:45:52.939Z,7.22
2023-05-20T08:48:22.471Z,4.95
2023-05-20T08:50:57.597Z,6.57
2023-05-20T08:53:25.143Z,4.13
2023-05-20T08:56:00.803Z,7.57
2023-05-20T08:58:33.131Z,3.83
2023-05-20T09:01:00.487Z,4.47
2023-05-20T09:03:27.765Z,3.90
2023-05-20T09:06:06.844Z,5.00
2023-05-20T09:08:34.739Z,5.22
2023-05-20T09:11:02.773Z,4.97
2023-05-20T09:13:32.922Z,4.93
2023-05-20T09:16:01.786Z,4.43
2023-05-20T09:18:29.498Z,4.70
2023-05-20T09:20:57.555Z,3.03
2023-05-20T09:23:28.156Z,6.00
2023-05-20T09:25:55.288Z,6.78
2023-05-20T09:28:25.378Z,3.22
2023-05-20T09:30:59.298Z,4.90
2023-05-20T09:33:32.401Z,4.97
2023-05-20T09:36:04.952Z,6.43
2023-05-20T09:38:39.996Z,3.15
2023-05-20T09:41:10.461Z,3.95
2023-05-20T09:43:38.214Z,3.25
2023-05-20T09:46:06.033Z,4.97
2023-05-20T09:48:36.415Z,3.22
2023-05-20T09:51:05.724Z,4.03
2023-05-20T09:53:32.718Z,6.97
2023-05-20T09:55:59.873Z,2.95
2023-05-20T09:58:27.687Z,4.70
2023-05-20T10:00:54.487Z,7.78
2023-05-20T10:03:25.297Z,4.47
2023-05-20T10:06:05.864Z,3.65
2023-05-20T10:09:01.605Z,5.68
2023-05-20T10:11:34.891Z,7.30
2023-05-20T10:14:20.853Z,3.95
2023-05-20T10:17:23.806Z,5.93
2023-05-20T10:19:51.615Z,3.33
2023-05-20T10:22:33.954Z,5.10
2023-05-20T10:25:07.178Z,3.22
2023-05-20T10:27:47.968Z,6.72
2023-05-20T10:30:22.492Z,3.90
2023-05-20T10:32:57.583Z,5.38
2023-05-20T10:35:28.677Z,2.45
2023-05-20T10:38:10.956Z,6.45
2023-05-20T10:40:38.130Z,2.90
2023-05-20T10:43:12.915Z,3.45
2023-05-20T10:45:54.548Z,3.47
2023-05-20T10:48:32.469Z,3.90
2023-05-20T10:51:05.615Z,3.35
2023-05-20T10:53:41.458Z,3.70
2023-05-20T10:56:18.829Z,2.90
2023-05-20T10:58:45.862Z,3.20
2023-05-20T11:01:14.150Z,3.33
2023-05-20T11:03:42.050Z,2.85
2023-05-20T11:06:13.724Z,5.28
2023-05-20T11:08:41.938Z,4.05
2023-05-20T11:11:10.682Z,3.85
2023-05-20T11:13:37.732Z,2.28
2023-05-20T11:16:05.338Z,4.03
2023-05-20T11:18:32.266Z,3.72
2023-05-20T11:21:00.561Z,3.45
2023-05-20T11:23:29.470Z,3.15
2023-05-20T11:25:58.021Z,3.22
2023-05-20T11:28:25.849Z,4.30
2023-05-20T11:30:53.739Z,2.78
2023-05-20T11:33:20.815Z,3.75
2023-05-20T11:35:49.561Z,5.88
2023-05-20T11:38:16.993Z,7.25
2023-05-20T11:40:51.862Z,5.35
2023-05-20T11:43:19.833Z,3.20
2023-05-20T11:45:52.388Z,2.63
2023-05-20T11:48:19.746Z,3.97
2023-05-20T11:50:50.069Z,3.20
2023-05-20T11:53:18.845Z,2.97
2023-05-20T11:56:01.808Z,6.20
2023-05-20T11:58:32.436Z,4.63
2023-05-20T12:01:08.929Z,1.83
2023-05-20T12:03:41.253Z,2.85
2023-05-20T12:06:11.504Z,5.68
2023-05-20T12:08:38.445Z,7.32
2023-05-20T12:11:08.154Z,6.60
2023-05-20T12:13:35.572Z,4.10
2023-05-20T12:16:06.029Z,5.10
2023-05-20T12:18:35.492Z,5.77
2023-05-20T12:21:02.361Z,5.03
2023-05-20T12:23:30.850Z,6.03
2023-05-20T12:25:57.732Z,7.05
2023-05-20T12:28:24.603Z,6.55
2023-05-20T12:30:51.497Z,5.30
2023-05-20T12:33:21.408Z,4.22
2023-05-20T12:35:48.439Z,7.68
2023-05-20T12:38:15.294Z,5.15
2023-05-20T12:40:42.222Z,9.27
2023-05-20T12:43:09.254Z,9.93
2023-05-20T12:45:36.140Z,5.57
2023-05-20T12:48:03.374Z,6.68
2023-05-20T12:50:30.266Z,9.38
2023-05-20T12:52:57.100Z,12.38
2023-05-20T12:55:24.003Z,6.78
2023-05-20T12:57:52.118Z,5.40
2023-05-20T13:00:19.022Z,4.63
2023-05-20T13:02:46.002Z,8.20
2023-05-20T13:05:13.954Z,4.53
2023-05-20T13:07:40.813Z,5.07
2023-05-20T13:10:08.325Z,12.15
2023-05-20T13:12:35.516Z,4.45
2023-05-20T13:15:02.594Z,7.93
2023-05-20T13:17:29.486Z,6.60
2023-05-20T13:19:56.540Z,5.75
2023-05-20T13:22:23.452Z,4.90
2023-05-20T13:24:50.314Z,6.50
2023-05-20T13:27:17.109Z,10.68
2023-05-20T13:29:44.003Z,8.93
2023-05-20T13:32:10.933Z,5.45
2023-05-20T13:34:38.812Z,6.43
2023-05-20T13:37:06.568Z,6.85
2023-05-20T13:39:33.938Z,6.80
2023-05-20T13:42:00.979Z,6.45
2023-05-20T13:44:27.894Z,6.65
2023-05-20T13:46:54.736Z,5.22
2023-05-20T13:49:22.087Z,4.93
2023-05-20T13:51:48.932Z,6.15
2023-05-20T13:54:16.190Z,6.40
2023-05-20T13:56:43.094Z,4.60
2023-05-20T13:59:09.995Z,5.82
2023-05-20T14:01:38.950Z,4.78
2023-05-20T14:04:07.468Z,4.82
2023-05-20T14:06:34.420Z,6.13
2023-05-20T14:09:03.285Z,5.35
2023-05-20T14:11:30.116Z,5.25
2023-05-20T14:13:56.928Z,6.07
2023-05-20T14:16:23.937Z,5.22
2023-05-20T14:18:50.900Z,9.35
2023-05-20T14:21:17.758Z,5.00
2023-05-20T14:23:45.466Z,7.18
2023-05-20T14:26:12.694Z,5.35
2023-05-20T14:28:39.877Z,5.68
2023-05-20T14:31:10.553Z,3.95
2023-05-20T14:33:37.725Z,6.40
2023-05-20T14:36:05.011Z,5.45
2023-05-20T14:38:31.933Z,4.90
2023-05-20T14:40:59.343Z,4.20
2023-05-20T14:43:26.386Z,3.95
2023-05-20T14:45:53.639Z,5.57
2023-05-20T14:48:20.868Z,5.55
2023-05-20T14:50:50.471Z,4.05
2023-05-20T14:53:21.731Z,5.10
2023-05-20T14:55:49.104Z,4.65
2023-05-20T14:58:16.194Z,5.18
2023-05-20T15:00:43.635Z,5.35
2023-05-20T15:03:13.357Z,3.50
2023-05-20T15:05:44.244Z,4.97
2023-05-20T15:08:11.822Z,3.42
2023-05-20T15:10:42.481Z,5.28
2023-05-20T15:13:16.612Z,6.00
2023-05-20T15:15:43.737Z,7.50
2023-05-20T15:18:13.157Z,3.97
2023-05-20T15:20:44.008Z,7.03
2023-05-20T15:23:11.346Z,4.57
2023-05-20T15:25:41.070Z,4.93
2023-05-20T15:28:08.035Z,5.60
2023-05-20T15:30:38.338Z,3.97
2023-05-20T15:33:09.413Z,3.17
2023-05-20T15:35:40.075Z,6.22
2023-05-20T15:38:07.124Z,4.85
2023-05-20T15:40:34.287Z,3.78
2023-05-20T15:43:04.928Z,5.75
2023-05-20T15:45:32.543Z,5.72
2023-05-20T15:48:00.231Z,4.35
2023-05-20T15:50:28.335Z,4.72
2023-05-20T15:52:55.884Z,7.35
2023-05-20T15:55:25.822Z,5.57
2023-05-20T15:57:52.872Z,4.25
2023-05-20T16:00:21.205Z,4.55
2023-05-20T16:02:48.336Z,12.55
2023-05-20T16:05:19.091Z,4.13
2023-05-20T16:07:47.937Z,6.70
2023-05-20T16:10:14.994Z,6.10
2023-05-20T16:12:42.014Z,5.13
2023-05-20T16:15:10.149Z,4.35
2023-05-20T16:17:43.520Z,4.75
2023-05-20T16:20:17.225Z,5.40
2023-05-20T16:22:45.389Z,6.00
2023-05-20T16:25:13.243Z,5.50
2023-05-20T16:27:40.715Z,3.42
2023-05-20T16:30:08.587Z,6.13
2023-05-20T16:32:35.503Z,6.80
2023-05-20T16:35:02.814Z,6.47
2023-05-20T16:37:29.951Z,4.10
2023-05-20T16:39:57.022Z,5.07
2023-05-20T16:42:24.116Z,6.65
2023-05-20T16:44:56.137Z,3.25
2023-05-20T16:47:23.229Z,5.15
2023-05-20T16:49:50.310Z,4.43
2023-05-20T16:52:21.103Z,3.92
2023-05-20T16:54:52.388Z,2.80
2023-05-20T16:57:19.296Z,4.88
2023-05-20T16:59:49.581Z,2.97
2023-05-20T17:02:17.536Z,3.80
2023-05-20T17:04:44.391Z,4.57
2023-05-20T17:07:12.050Z,5.00
2023-05-20T17:09:38.931Z,4.85
2023-05-20T17:12:06.543Z,6.03
2023-05-20T17:14:36.122Z,4.18
2023-05-20T17:17:03.342Z,4.82
2023-05-20T17:19:33.241Z,6.22
2023-05-20T17:22:01.480Z,4.47
2023-05-20T17:24:29.311Z,5.25
2023-05-20T17:26:59.023Z,3.65
2023-05-20T17:29:26.010Z,3.33
2023-05-20T17:31:56.360Z,4.97
2023-05-20T17:34:23.385Z,3.80
2023-05-20T17:36:51.843Z,3.80
2023-05-20T17:39:21.995Z,3.92
2023-05-20T17:41:50.019Z,3.67
2023-05-20T17:44:17.036Z,3.85
2023-05-20T17:46:44.108Z,3.22
2023-05-20T17:49:11.296Z,2.85
2023-05-20T17:51:38.835Z,5.45
2023-05-20T17:54:06.163Z,5.43
2023-05-20T17:56:37.014Z,3.60
2023-05-20T17:59:06.570Z,5.75
2023-05-20T18:01:37.561Z,3.63
2023-05-20T18:06:34.655Z,6.47
2023-05-20T18:09:02.240Z,4.00
2023-05-20T18:11:32.244Z,3.97
2023-05-20T18:14:00.079Z,3.22
2023-05-20T18:16:28.403Z,4.95
2023-05-20T18:18:56.069Z,5.68
2023-05-20T18:21:24.192Z,5.35
2023-05-20T18:23:51.193Z,7.28
2023-05-20T18:26:21.954Z,7.47
2023-05-20T18:28:50.344Z,4.90
2023-05-20T18:31:17.601Z,3.25
2023-05-20T18:33:44.994Z,3.40
2023-05-20T18:36:22.134Z,6.30
2023-05-20T18:38:49.664Z,4.55
2023-05-20T18:41:16.712Z,4.68
2023-05-20T18:43:47.551Z,5.85
2023-05-20T18:46:21.645Z,3.92
2023-05-20T18:48:53.340Z,4.97
2023-05-20T18:51:23.660Z,4.20
2023-05-20T18:53:54.000Z,4.67
2023-05-20T18:56:29.523Z,5.63
2023-05-20T18:59:00.892Z,5.18
2023-05-20T19:04:02.170Z,5.75
2023-05-20T19:06:37.801Z,5.03
2023-05-20T19:09:05.959Z,6.72
2023-05-20T19:11:36.560Z,4.68
2023-05-20T19:14:04.647Z,4.53
2023-05-20T19:16:32.507Z,3.55
2023-05-20T19:19:03.990Z,6.05
2023-05-20T19:21:37.671Z,3.90
2023-05-20T19:24:09.100Z,6.88
2023-05-20T19:26:37.109Z,9.00
2023-05-20T19:29:04.528Z,5.57
2023-05-20T19:31:34.910Z,3.78
2023-05-20T19:34:05.984Z,6.90
2023-05-20T19:36:33.337Z,5.30
2023-05-20T19:39:06.260Z,4.63
2023-05-20T19:41:33.402Z,4.90
2023-05-20T19:44:04.654Z,6.47
2023-05-20T19:46:33.118Z,5.55
2023-05-20T19:49:00.778Z,4.25
2023-05-20T19:51:31.568Z,6.75
2023-05-20T19:53:58.837Z,6.90
2023-05-20T19:56:30.234Z,4.82
2023-05-20T20:01:39.291Z,5.30
2023-05-20T20:04:09.189Z,5.35
2023-05-20T20:06:36.466Z,4.22
2023-05-20T20:09:05.009Z,6.63
2023-05-20T20:11:33.264Z,3.40
2023-05-20T20:14:00.334Z,6.00
2023-05-20T20:16:27.594Z,5.28
2023-05-20T20:18:58.220Z,6.47
2023-05-20T20:21:29.099Z,7.07
2023-05-20T20:24:00.306Z,5.50
2023-05-20T20:26:30.867Z,5.05
2023-05-20T20:28:57.899Z,6.03
2023-05-20T20:31:32.562Z,4.53
2023-05-20T20:34:03.431Z,8.18
2023-05-20T20:36:35.415Z,5.05
2023-05-20T20:39:06.670Z,5.95
2023-05-20T20:41:38.944Z,5.82
2023-05-20T20:44:07.592Z,5.50
2023-05-20T20:46:37.773Z,5.05
2023-05-20T20:49:09.232Z,4.63
2023-05-20T20:54:04.429Z,6.20
2023-05-20T20:56:31.690Z,4.93
2023-05-20T20:58:59.132Z,7.18
2023-05-20T21:01:28.168Z,6.65
2023-05-20T21:03:55.657Z,4.45
2023-05-20T21:06:27.669Z,6.65
2023-05-20T21:08:59.264Z,5.80
2023-05-20T21:11:28.164Z,4.80
2023-05-20T21:13:57.740Z,7.00
2023-05-20T21:16:25.615Z,7.68
2023-05-20T21:18:56.926Z,5.55
2023-05-20T21:21:24.115Z,5.80
2023-05-20T21:23:52.323Z,5.93
2023-05-20T21:26:25.204Z,7.05
2023-05-20T21:28:53.959Z,5.97
2023-05-20T21:31:21.474Z,6.60
2023-05-20T21:33:52.048Z,6.03
2023-05-20T21:36:21.171Z,7.53
2023-05-20T21:38:51.207Z,6.03
2023-05-20T21:41:19.465Z,8.02
2023-05-20T21:43:46.949Z,5.38
2023-05-20T21:46:14.468Z,5.72
2023-05-20T21:48:42.251Z,5.22
2023-05-20T21:51:09.672Z,6.28
2023-05-20T21:53:37.043Z,4.65
2023-05-20T21:56:05.034Z,6.57
2023-05-20T21:58:41.091Z,7.97
2023-05-20T22:01:10.349Z,8.07
2023-05-20T22:03:40.129Z,5.43
2023-05-20T22:06:07.826Z,9.45
2023-05-20T22:08:35.421Z,6.05
2023-05-20T22:11:07.414Z,4.55
2023-05-20T22:13:36.103Z,8.57
2023-05-20T22:16:07.988Z,5.93
2023-05-20T22:18:37.796Z,6.22
2023-05-20T22:21:06.283Z,4.43
2023-05-20T22:23:33.931Z,6.65
2023-05-20T22:26:01.883Z,6.32
2023-05-20T22:28:29.287Z,4.68
2023-05-20T22:30:57.133Z,6.20
2023-05-20T22:33:31.290Z,7.13
2023-05-20T22:35:58.944Z,6.70
2023-05-20T22:38:26.265Z,5.10
2023-05-20T22:41:00.691Z,5.13
2023-05-20T22:43:29.110Z,5.72
2023-05-20T22:45:56.691Z,6.00
2023-05-20T22:48:25.216Z,6.47
2023-05-20T22:50:54.207Z,6.07
2023-05-20T22:53:23.191Z,5.93
2023-05-20T22:55:52.369Z,7.43
2023-05-20T22:58:24.271Z,6.30
2023-05-20T23:00:51.588Z,8.38
2023-05-20T23:03:22.027Z,5.80
2023-05-20T23:05:50.053Z,6.43
2023-05-20T23:08:17.318Z,8.65
2023-05-20T23:10:48.620Z,7.22
2023-05-20T23:13:16.129Z,7.68
2023-05-20T23:15:47.976Z,6.25
2023-05-20T23:18:18.660Z,5.88
2023-05-20T23:20:46.231Z,6.25
2023-05-20T23:23:13.586Z,5.30
2023-05-20T23:25:45.878Z,6.95
2023-05-20T23:28:14.489Z,6.80
2023-05-20T23:30:45.681Z,6.03
2023-05-20T23:33:13.444Z,5.93
2023-05-20T23:35:40.809Z,8.48
2023-05-20T23:38:09.212Z,7.13
2023-05-20T23:40:36.508Z,6.32
2023-05-20T23:43:03.744Z,6.18
2023-05-20T23:45:30.969Z,9.18
2023-05-20T23:47:59.269Z,6.93
2023-05-20T23:50:27.987Z,7.05
2023-05-20T23:52:57.488Z,8.73
2023-05-20T23:55:25.653Z,7.65
2023-05-20T23:57:52.886Z,6.85
